createdAt,value
2022-09-14T00:01:36.682Z,87.80
2022-09-14T00:04:07.658Z,87.80
2022-09-14T00:06:36.438Z,87.90
2022-09-14T00:09:07.307Z,87.90
2022-09-14T00:11:38.019Z,88.00
2022-09-14T00:14:07.879Z,88.00
2022-09-14T00:16:38.548Z,88.10
2022-09-14T00:19:08.920Z,88.10
2022-09-14T00:21:38.754Z,88.00
2022-09-14T00:24:08.854Z,88.20
2022-09-14T00:26:39.541Z,88.20
2022-09-14T00:29:08.082Z,88.10
2022-09-14T00:31:38.329Z,88.20
2022-09-14T00:34:08.530Z,88.40
2022-09-14T00:36:41.711Z,88.60
2022-09-14T00:39:10.495Z,88.60
2022-09-14T00:41:43.272Z,88.80
2022-09-14T00:44:44.918Z,89.10
2022-09-14T00:47:15.199Z,89.10
2022-09-14T00:49:44.746Z,89.20
2022-09-14T00:52:16.383Z,89.20
2022-09-14T00:54:47.481Z,89.30
2022-09-14T00:57:18.312Z,89.50
2022-09-14T00:59:49.202Z,89.60
2022-09-14T01:02:19.642Z,89.60
2022-09-14T01:04:49.029Z,89.70
2022-09-14T01:07:27.609Z,89.60
2022-09-14T01:10:02.867Z,89.50
2022-09-14T01:12:41.871Z,89.60
2022-09-14T01:15:18.792Z,89.70
2022-09-14T01:17:58.625Z,89.70
2022-09-14T01:20:31.335Z,89.50
2022-09-14T01:23:08.847Z,90.20
2022-09-14T01:26:14.411Z,89.70
2022-09-14T01:28:50.481Z,89.10
2022-09-14T01:31:22.475Z,89.70
2022-09-14T01:33:56.600Z,89.80
2022-09-14T01:36:27.036Z,89.50
2022-09-14T01:38:56.106Z,89.50
2022-09-14T01:41:29.731Z,89.50
2022-09-14T01:44:04.323Z,89.40
2022-09-14T01:46:39.504Z,89.30
2022-09-14T01:49:14.709Z,89.40
2022-09-14T01:51:48.713Z,89.30
2022-09-14T01:54:23.674Z,89.30
2022-09-14T01:56:56.829Z,89.50
2022-09-14T01:59:29.489Z,89.50
2022-09-14T02:02:02.276Z,89.50
2022-09-14T02:04:35.638Z,89.40
2022-09-14T02:07:05.108Z,89.40
2022-09-14T02:09:33.653Z,89.30
2022-09-14T02:12:02.181Z,89.40
2022-09-14T02:14:32.813Z,89.50
2022-09-14T02:17:01.164Z,89.60
2022-09-14T02:19:36.936Z,89.70
2022-09-14T02:22:05.517Z,89.70
2022-09-14T02:24:35.218Z,89.70
2022-09-14T02:27:04.540Z,89.80
2022-09-14T02:29:35.064Z,90.00
2022-09-14T02:32:13.294Z,89.80
2022-09-14T02:34:53.817Z,89.50
2022-09-14T02:37:29.394Z,89.50
2022-09-14T02:40:06.263Z,89.40
2022-09-14T02:42:40.325Z,89.50
2022-09-14T02:45:19.146Z,89.60
2022-09-14T02:47:56.719Z,89.60
2022-09-14T02:50:31.404Z,89.50
2022-09-14T02:53:06.013Z,89.70
2022-09-14T02:55:38.697Z,89.60
2022-09-14T02:58:09.167Z,89.70
2022-09-14T03:00:40.722Z,89.90
2022-09-14T03:03:11.314Z,90.00
2022-09-14T03:05:39.866Z,90.00
2022-09-14T03:08:09.102Z,90.10
2022-09-14T03:10:38.005Z,90.10
2022-09-14T03:13:06.272Z,90.20
2022-09-14T03:15:34.748Z,90.20
2022-09-14T03:18:04.637Z,90.20
2022-09-14T03:20:34.506Z,90.20
2022-09-14T03:23:03.780Z,90.20
2022-09-14T03:25:32.924Z,90.20
2022-09-14T03:28:01.878Z,90.30
2022-09-14T03:30:29.896Z,90.70
2022-09-14T03:32:59.995Z,90.30
2022-09-14T03:35:31.717Z,90.30
2022-09-14T03:38:01.319Z,90.30
2022-09-14T03:40:29.709Z,90.40
2022-09-14T03:42:58.186Z,90.50
2022-09-14T03:45:26.320Z,90.70
2022-09-14T03:47:54.868Z,90.80
2022-09-14T03:50:22.876Z,91.20
2022-09-14T03:52:52.724Z,91.60
2022-09-14T03:55:21.316Z,91.70
2022-09-14T03:57:49.367Z,91.90
2022-09-14T04:00:17.854Z,92.10
2022-09-14T04:02:46.333Z,92.30
2022-09-14T04:05:16.845Z,92.50
2022-09-14T04:07:46.746Z,92.70
2022-09-14T04:10:16.845Z,92.80
2022-09-14T04:12:44.920Z,93.50
2022-09-14T04:15:13.041Z,93.20
2022-09-14T04:17:41.086Z,93.30
2022-09-14T04:20:10.699Z,93.40
2022-09-14T04:22:38.714Z,93.50
2022-09-14T04:25:07.940Z,93.60
2022-09-14T04:27:37.333Z,93.70
2022-09-14T04:30:07.219Z,93.80
2022-09-14T04:32:35.250Z,93.80
2022-09-14T04:35:03.923Z,93.90
2022-09-14T04:37:33.509Z,94.10
2022-09-14T04:40:01.786Z,94.20
2022-09-14T04:42:31.469Z,94.30
2022-09-14T04:45:00.876Z,94.30
2022-09-14T04:47:30.044Z,94.40
2022-09-14T04:49:58.680Z,94.60
2022-09-14T04:52:26.733Z,94.70
2022-09-14T04:54:54.771Z,94.70
2022-09-14T04:57:23.213Z,94.70
2022-09-14T04:59:51.240Z,94.70
2022-09-14T05:02:21.201Z,94.80
2022-09-14T05:04:49.306Z,94.90
2022-09-14T05:07:17.786Z,95.00
2022-09-14T05:09:46.367Z,95.10
2022-09-14T05:12:14.464Z,95.10
2022-09-14T05:14:42.954Z,95.20
2022-09-14T05:17:11.239Z,95.20
2022-09-14T05:19:40.641Z,95.20
2022-09-14T05:22:09.117Z,95.40
2022-09-14T05:24:37.153Z,95.40
2022-09-14T05:27:05.442Z,95.50
2022-09-14T05:29:33.972Z,95.60
2022-09-14T05:32:02.473Z,95.60
2022-09-14T05:34:30.941Z,95.60
2022-09-14T05:37:00.794Z,95.60
2022-09-14T05:39:29.273Z,95.60
2022-09-14T05:41:57.772Z,95.60
2022-09-14T05:44:25.830Z,95.70
2022-09-14T05:46:54.314Z,95.70
2022-09-14T05:49:22.776Z,95.80
2022-09-14T05:51:51.243Z,95.80
2022-09-14T05:54:20.896Z,95.80
2022-09-14T05:56:49.349Z,95.80
2022-09-14T05:59:17.415Z,95.90
2022-09-14T06:01:45.980Z,96.30
2022-09-14T06:04:14.576Z,95.90
2022-09-14T06:06:49.315Z,95.90
2022-09-14T06:09:28.000Z,95.90
2022-09-14T06:11:58.344Z,95.90
2022-09-14T06:14:26.520Z,95.90
2022-09-14T06:16:54.597Z,95.90
2022-09-14T06:19:22.611Z,96.00
2022-09-14T06:21:50.931Z,96.00
2022-09-14T06:24:19.475Z,96.00
2022-09-14T06:26:49.053Z,96.10
2022-09-14T06:29:17.547Z,96.10
2022-09-14T06:31:45.647Z,96.10
2022-09-14T06:34:14.263Z,96.10
2022-09-14T06:36:42.301Z,96.10
2022-09-14T06:39:10.528Z,96.20
2022-09-14T06:41:39.013Z,96.10
2022-09-14T06:44:08.447Z,96.20
2022-09-14T06:46:37.440Z,96.20
2022-09-14T06:49:08.014Z,96.20
2022-09-14T06:51:38.214Z,96.20
2022-09-14T06:54:07.087Z,96.30
2022-09-14T06:56:38.379Z,96.30
2022-09-14T06:59:09.175Z,96.30
2022-09-14T07:01:37.946Z,96.30
2022-09-14T07:04:07.057Z,96.40
2022-09-14T07:06:43.804Z,96.50
2022-09-14T07:09:12.716Z,96.40
2022-09-14T07:11:41.875Z,96.60
2022-09-14T07:14:12.438Z,96.60
2022-09-14T07:16:42.459Z,96.60
2022-09-14T07:19:13.316Z,96.70
2022-09-14T07:21:41.730Z,96.80
2022-09-14T07:24:09.806Z,96.80
2022-09-14T07:26:42.285Z,97.00
2022-09-14T07:29:14.020Z,97.10
2022-09-14T07:31:44.569Z,97.10
2022-09-14T07:34:13.661Z,97.20
2022-09-14T07:36:42.670Z,97.30
2022-09-14T07:39:14.436Z,97.40
2022-09-14T07:41:43.457Z,97.60
2022-09-14T07:44:16.647Z,97.70
2022-09-14T07:46:46.697Z,98.00
2022-09-14T07:49:16.041Z,98.20
2022-09-14T07:51:44.461Z,98.30
2022-09-14T07:54:14.996Z,98.60
2022-09-14T07:56:43.568Z,98.50
2022-09-14T08:02:03.039Z,98.80
2022-09-14T08:04:31.548Z,98.80
2022-09-14T08:06:59.634Z,98.80
2022-09-14T08:09:28.269Z,98.90
2022-09-14T08:11:57.647Z,99.00
2022-09-14T08:14:27.245Z,99.00
2022-09-14T08:16:55.777Z,99.10
2022-09-14T08:19:23.867Z,99.10
2022-09-14T08:21:52.580Z,99.20
2022-09-14T08:24:22.700Z,99.30
2022-09-14T08:26:51.062Z,99.20
2022-09-14T08:29:20.805Z,99.30
2022-09-14T08:31:52.343Z,99.30
2022-09-14T08:34:21.220Z,99.40
2022-09-14T08:36:49.428Z,99.40
2022-09-14T08:39:19.131Z,99.50
2022-09-14T08:41:53.804Z,99.40
2022-09-14T08:44:27.444Z,99.60
2022-09-14T08:47:03.217Z,99.60
2022-09-14T08:49:48.224Z,99.70
2022-09-14T08:52:26.620Z,99.90
2022-09-14T08:54:57.447Z,99.80
2022-09-14T08:57:32.442Z,99.70
2022-09-14T09:00:08.714Z,99.70
2022-09-14T09:03:15.681Z,99.80
2022-09-14T09:05:50.393Z,99.90
2022-09-14T09:08:23.749Z,99.60
2022-09-14T09:10:55.170Z,99.60
2022-09-14T09:13:27.736Z,99.60
2022-09-14T09:15:59.657Z,99.60
2022-09-14T09:18:37.385Z,99.70
2022-09-14T09:21:11.503Z,99.70
2022-09-14T09:23:41.038Z,99.70
2022-09-14T09:26:17.658Z,99.90
2022-09-14T09:28:49.927Z,99.70
2022-09-14T09:31:20.781Z,99.60
2022-09-14T09:33:51.862Z,99.60
2022-09-14T09:36:20.577Z,99.70
2022-09-14T09:38:48.725Z,99.70
2022-09-14T09:41:22.398Z,99.70
2022-09-14T09:44:02.182Z,99.70
2022-09-14T09:46:33.215Z,99.90
2022-09-14T09:49:05.729Z,99.70
2022-09-14T09:51:36.219Z,99.70
2022-09-14T09:54:10.162Z,99.70
2022-09-14T09:56:42.043Z,99.80
2022-09-14T09:59:25.012Z,99.80
2022-09-14T10:01:56.012Z,99.90
2022-09-14T10:04:29.935Z,99.70
2022-09-14T10:06:59.230Z,99.80
2022-09-14T10:09:29.729Z,99.80
2022-09-14T10:12:00.960Z,99.90
2022-09-14T10:14:32.829Z,99.90
2022-09-14T10:17:09.292Z,99.90
2022-09-14T10:19:39.568Z,99.90
2022-09-14T10:22:26.290Z,99.90
2022-09-14T10:24:59.819Z,99.90
2022-09-14T10:27:40.022Z,99.90
2022-09-14T10:30:14.898Z,99.90
2022-09-14T10:32:46.935Z,99.90
2022-09-14T10:35:17.215Z,99.90
2022-09-14T10:38:02.097Z,99.80
2022-09-14T10:40:37.225Z,99.80
2022-09-14T10:43:15.073Z,99.70
2022-09-14T10:45:50.042Z,99.70
2022-09-14T10:49:03.962Z,99.70
2022-09-14T10:51:48.897Z,99.50
2022-09-14T10:54:37.370Z,99.50
2022-09-14T10:57:15.013Z,99.60
2022-09-14T10:59:53.379Z,99.50
2022-09-14T11:02:45.755Z,99.40
2022-09-14T11:05:21.040Z,99.40
2022-09-14T11:08:08.890Z,99.40
2022-09-14T11:10:47.221Z,99.40
2022-09-14T11:13:44.759Z,99.40
2022-09-14T11:16:37.049Z,99.30
2022-09-14T11:19:18.619Z,99.30
2022-09-14T11:21:53.862Z,99.20
2022-09-14T11:24:29.444Z,99.30
2022-09-14T11:27:03.240Z,99.40
2022-09-14T11:29:35.359Z,99.30
2022-09-14T11:32:20.787Z,99.10
2022-09-14T11:34:55.313Z,99.00
2022-09-14T11:37:32.256Z,99.00
2022-09-14T11:40:08.512Z,99.00
2022-09-14T11:42:45.235Z,99.10
2022-09-14T11:45:20.016Z,99.20
2022-09-14T11:47:55.588Z,99.40
2022-09-14T11:50:27.537Z,99.90
2022-09-14T11:53:05.099Z,99.40
2022-09-14T11:55:35.154Z,99.00
2022-09-14T11:58:08.605Z,98.80
2022-09-14T12:01:06.149Z,98.60
2022-09-14T12:04:03.599Z,98.20
2022-09-14T12:06:51.444Z,98.20
2022-09-14T12:09:55.124Z,98.20
2022-09-14T12:12:33.990Z,97.70
2022-09-14T12:15:05.438Z,98.10
2022-09-14T12:17:40.168Z,98.30
2022-09-14T12:20:30.577Z,98.20
2022-09-14T12:23:28.234Z,97.60
2022-09-14T12:26:28.339Z,97.70
2022-09-14T12:29:02.840Z,97.40
2022-09-14T12:31:38.829Z,97.80
2022-09-14T12:34:25.120Z,97.90
2022-09-14T12:37:32.223Z,97.60
2022-09-14T12:40:34.790Z,97.80
2022-09-14T12:43:46.237Z,98.10
2022-09-14T12:46:38.836Z,98.00
2022-09-14T12:49:37.230Z,98.00
2022-09-14T12:52:28.129Z,97.70
2022-09-14T12:55:08.001Z,97.50
2022-09-14T12:57:43.086Z,97.60
2022-09-14T13:00:15.349Z,97.40
2022-09-14T13:03:17.757Z,97.00
2022-09-14T13:05:47.333Z,96.00
2022-09-14T13:08:22.009Z,96.30
2022-09-14T13:10:52.307Z,96.00
2022-09-14T13:13:23.736Z,96.10
2022-09-14T13:15:55.302Z,95.90
2022-09-14T13:18:36.470Z,95.70
2022-09-14T13:21:24.339Z,95.30
2022-09-14T13:23:52.924Z,95.60
2022-09-14T13:26:23.485Z,95.70
2022-09-14T13:28:54.077Z,95.50
2022-09-14T13:31:30.078Z,95.50
2022-09-14T13:34:01.000Z,94.80
2022-09-14T13:36:32.257Z,94.90
2022-09-14T13:39:02.551Z,94.80
2022-09-14T13:41:32.695Z,94.90
2022-09-14T13:44:01.856Z,95.00
2022-09-14T13:46:30.226Z,95.10
2022-09-14T13:49:00.423Z,95.00
2022-09-14T13:51:31.465Z,94.80
2022-09-14T13:54:17.089Z,94.70
2022-09-14T13:56:45.545Z,94.90
2022-09-14T13:59:19.810Z,94.90
2022-09-14T14:02:00.286Z,94.40
2022-09-14T14:04:35.422Z,94.00
2022-09-14T14:07:08.804Z,94.20
2022-09-14T14:09:43.703Z,94.90
2022-09-14T14:12:14.608Z,94.40
2022-09-14T14:14:43.128Z,94.30
2022-09-14T14:17:42.834Z,94.20
2022-09-14T14:20:32.589Z,93.90
2022-09-14T14:23:05.080Z,93.80
2022-09-14T14:25:42.055Z,94.20
2022-09-14T14:28:18.343Z,94.10
2022-09-14T14:30:46.806Z,94.10
2022-09-14T14:33:19.142Z,94.40
2022-09-14T14:35:49.420Z,94.30
2022-09-14T14:38:19.616Z,94.20
2022-09-14T14:40:49.323Z,94.30
2022-09-14T14:43:20.687Z,94.60
2022-09-14T14:45:49.834Z,94.90
2022-09-14T14:48:18.805Z,95.10
2022-09-14T14:50:49.121Z,95.40
2022-09-14T14:53:17.267Z,95.50
2022-09-14T14:55:45.768Z,95.70
2022-09-14T14:58:17.632Z,95.80
2022-09-14T15:00:47.769Z,95.90
2022-09-14T15:03:16.507Z,96.00
2022-09-14T15:05:46.634Z,95.90
2022-09-14T15:08:19.861Z,96.00
2022-09-14T15:10:49.842Z,96.30
2022-09-14T15:13:18.087Z,96.30
2022-09-14T15:15:46.214Z,96.40
2022-09-14T15:18:14.740Z,96.40
2022-09-14T15:20:42.794Z,96.40
2022-09-14T15:23:14.762Z,96.50
2022-09-14T15:25:44.214Z,96.40
2022-09-14T15:28:12.708Z,96.20
2022-09-14T15:30:41.750Z,96.30
2022-09-14T15:33:09.878Z,96.50
2022-09-14T15:35:39.051Z,96.60
2022-09-14T15:38:07.605Z,96.80
2022-09-14T15:40:35.730Z,96.90
2022-09-14T15:43:05.637Z,97.00
2022-09-14T15:45:34.227Z,97.00
2022-09-14T15:48:03.183Z,97.20
2022-09-14T15:50:31.220Z,97.20
2022-09-14T15:53:02.525Z,97.20
2022-09-14T15:55:30.963Z,97.20
2022-09-14T15:57:59.092Z,97.30
2022-09-14T16:00:28.495Z,97.20
2022-09-14T16:02:56.549Z,97.30
2022-09-14T16:05:25.086Z,97.10
2022-09-14T16:07:54.686Z,97.00
2022-09-14T16:10:23.040Z,96.90
2022-09-14T16:12:51.643Z,96.90
2022-09-14T16:15:19.694Z,96.90
2022-09-14T16:17:53.102Z,96.90
2022-09-14T16:20:22.044Z,96.80
2022-09-14T16:22:51.391Z,97.00
2022-09-14T16:25:19.784Z,97.10
2022-09-14T16:27:49.350Z,97.10
2022-09-14T16:30:17.480Z,97.10
2022-09-14T16:32:45.767Z,97.10
2022-09-14T16:35:15.491Z,96.90
2022-09-14T16:37:43.958Z,96.90
2022-09-14T16:40:13.941Z,96.90
2022-09-14T16:42:42.514Z,97.00
2022-09-14T16:45:11.512Z,97.00
2022-09-14T16:47:40.217Z,96.60
2022-09-14T16:50:08.541Z,97.00
2022-09-14T16:52:37.968Z,97.00
2022-09-14T16:55:07.557Z,97.00
2022-09-14T16:57:35.584Z,97.00
2022-09-14T17:00:04.813Z,97.00
2022-09-14T17:02:33.381Z,97.00
2022-09-14T17:05:04.336Z,97.00
2022-09-14T17:07:32.433Z,97.00
2022-09-14T17:10:01.974Z,96.90
2022-09-14T17:12:30.428Z,96.90
2022-09-14T17:14:59.415Z,96.70
2022-09-14T17:17:27.462Z,96.70
2022-09-14T17:19:55.654Z,96.80
2022-09-14T17:22:24.007Z,96.70
2022-09-14T17:24:52.105Z,96.70
2022-09-14T17:27:22.410Z,96.60
2022-09-14T17:29:50.892Z,96.50
2022-09-14T17:32:19.386Z,96.50
2022-09-14T17:34:47.402Z,96.50
2022-09-14T17:37:15.632Z,96.50
2022-09-14T17:39:44.224Z,96.50
2022-09-14T17:42:12.411Z,96.50
2022-09-14T17:44:41.915Z,96.50
2022-09-14T17:47:10.456Z,96.50
2022-09-14T17:49:38.621Z,96.50
2022-09-14T17:52:07.294Z,96.40
2022-09-14T17:54:35.450Z,96.40
2022-09-14T17:57:03.977Z,96.40
2022-09-14T17:59:32.006Z,96.30
2022-09-14T18:02:01.975Z,96.20
2022-09-14T18:04:30.054Z,95.70
2022-09-14T18:06:58.483Z,96.20
2022-09-14T18:09:26.617Z,96.30
2022-09-14T18:11:57.125Z,96.20
2022-09-14T18:14:25.794Z,96.30
2022-09-14T18:16:53.895Z,96.30
2022-09-14T18:19:24.022Z,96.30
2022-09-14T18:21:53.022Z,96.20
2022-09-14T18:24:22.224Z,96.20
2022-09-14T18:26:50.396Z,96.20
2022-09-14T18:29:21.583Z,96.10
2022-09-14T18:31:49.775Z,96.10
2022-09-14T18:34:18.489Z,96.10
2022-09-14T18:36:48.127Z,96.10
2022-09-14T18:39:16.795Z,96.10
2022-09-14T18:41:45.118Z,96.10
2022-09-14T18:44:13.176Z,96.10
2022-09-14T18:46:41.723Z,96.00
2022-09-14T18:49:10.593Z,96.00
2022-09-14T18:51:39.105Z,95.90
2022-09-14T18:54:09.626Z,95.90
2022-09-14T18:56:38.341Z,95.90
2022-09-14T18:59:08.905Z,95.90
2022-09-14T19:01:37.982Z,95.90
2022-09-14T19:04:08.566Z,95.80
2022-09-14T19:06:38.039Z,95.80
2022-09-14T19:09:09.305Z,95.80
2022-09-14T19:11:37.555Z,95.90
2022-09-14T19:14:10.593Z,95.80
2022-09-14T19:16:40.981Z,95.80
2022-09-14T19:19:11.786Z,95.80
2022-09-14T19:21:40.368Z,95.70
2022-09-14T19:24:14.190Z,95.70
2022-09-14T19:26:45.565Z,95.60
2022-09-14T19:29:14.869Z,95.60
2022-09-14T19:31:43.516Z,95.60
2022-09-14T19:34:12.660Z,95.60
2022-09-14T19:36:41.189Z,95.60
2022-09-14T19:39:10.771Z,95.60
2022-09-14T19:41:40.438Z,95.50
2022-09-14T19:44:09.365Z,95.60
2022-09-14T19:46:40.167Z,95.50
2022-09-14T19:49:09.176Z,95.60
2022-09-14T19:51:37.230Z,95.60
2022-09-14T19:54:06.067Z,95.60
2022-09-14T19:56:35.972Z,95.60
2022-09-14T19:59:06.204Z,95.60
2022-09-14T20:01:37.423Z,95.50
2022-09-14T20:04:08.591Z,95.40
2022-09-14T20:06:40.251Z,95.50
2022-09-14T20:09:10.262Z,95.80
2022-09-14T20:11:42.199Z,95.40
2022-09-14T20:14:14.900Z,95.30
2022-09-14T20:16:45.335Z,95.30
2022-09-14T20:19:15.142Z,95.30
2022-09-14T20:21:43.946Z,95.30
2022-09-14T20:24:16.539Z,95.30
2022-09-14T20:26:47.328Z,95.30
2022-09-14T20:29:16.349Z,95.40
2022-09-14T20:31:45.474Z,95.40
2022-09-14T20:34:15.671Z,95.40
2022-09-14T20:36:45.699Z,95.40
2022-09-14T20:39:14.289Z,95.40
2022-09-14T20:41:42.673Z,95.30
2022-09-14T20:44:13.787Z,95.20
2022-09-14T20:46:43.543Z,95.20
2022-09-14T20:49:14.184Z,95.20
2022-09-14T20:51:42.935Z,95.20
2022-09-14T20:54:13.415Z,95.20
2022-09-14T20:56:42.020Z,95.20
2022-09-14T20:59:13.125Z,95.20
2022-09-14T21:01:42.986Z,95.30
2022-09-14T21:04:13.783Z,95.30
2022-09-14T21:06:44.361Z,95.30
2022-09-14T21:09:13.865Z,95.30
2022-09-14T21:11:42.145Z,95.40
2022-09-14T21:14:11.588Z,95.30
2022-09-14T21:16:43.002Z,95.30
2022-09-14T21:19:13.688Z,95.30
2022-09-14T21:21:42.101Z,95.30
2022-09-14T21:24:13.826Z,95.30
2022-09-14T21:26:43.074Z,95.30
2022-09-14T21:29:16.163Z,95.20
2022-09-14T21:31:45.612Z,95.20
2022-09-14T21:34:14.798Z,95.10
2022-09-14T21:36:44.275Z,95.10
2022-09-14T21:39:14.972Z,95.10
2022-09-14T21:41:44.665Z,94.90
2022-09-14T21:44:14.788Z,94.80
2022-09-14T21:46:43.769Z,94.80
2022-09-14T21:49:15.104Z,94.80
2022-09-14T21:51:44.793Z,94.80
2022-09-14T21:54:14.095Z,94.90
2022-09-14T21:56:44.726Z,94.90
2022-09-14T21:59:15.676Z,94.90
2022-09-14T22:01:44.053Z,94.90
2022-09-14T22:04:15.212Z,94.90
2022-09-14T22:06:45.179Z,94.90
2022-09-14T22:09:14.536Z,94.90
2022-09-14T22:11:42.829Z,95.00
2022-09-14T22:14:15.561Z,95.00
2022-09-14T22:16:43.941Z,95.00
2022-09-14T22:19:16.883Z,95.00
2022-09-14T22:21:45.900Z,95.00
2022-09-14T22:24:17.329Z,95.00
2022-09-14T22:26:46.847Z,95.00
2022-09-14T22:29:17.640Z,95.20
2022-09-14T22:31:47.477Z,95.00
2022-09-14T22:34:17.094Z,95.00
2022-09-14T22:36:45.291Z,95.10
2022-09-14T22:39:14.450Z,95.10
2022-09-14T22:41:43.290Z,95.10
2022-09-14T22:44:13.065Z,95.10
2022-09-14T22:46:43.657Z,95.20
2022-09-14T22:49:11.873Z,95.10
2022-09-14T22:51:40.493Z,95.10
2022-09-14T22:54:09.387Z,94.80
2022-09-14T22:56:39.346Z,95.00
2022-09-14T22:59:09.543Z,95.00
2022-09-14T23:01:39.947Z,95.00
2022-09-14T23:04:12.196Z,95.00
2022-09-14T23:06:42.500Z,95.00
2022-09-14T23:09:14.689Z,95.00
2022-09-14T23:11:44.973Z,95.00
2022-09-14T23:14:13.751Z,95.00
2022-09-14T23:16:45.533Z,95.00
2022-09-14T23:19:17.330Z,94.90
2022-09-14T23:21:46.155Z,94.90
2022-09-14T23:24:14.871Z,94.90
2022-09-14T23:26:43.938Z,94.90
2022-09-14T23:29:16.392Z,94.90
2022-09-14T23:31:45.254Z,94.80
2022-09-14T23:34:15.156Z,94.90
2022-09-14T23:36:43.279Z,94.80
2022-09-14T23:39:11.360Z,94.80
2022-09-14T23:41:40.853Z,95.20
2022-09-14T23:44:09.782Z,94.80
2022-09-14T23:46:38.293Z,94.70
2022-09-14T23:49:07.025Z,94.80
2022-09-14T23:51:37.886Z,94.70
2022-09-14T23:54:07.034Z,94.70
2022-09-14T23:56:35.147Z,94.80
2022-09-14T23:59:03.237Z,94.70
